createdAt,value
2022-08-08T00:00:52.133Z,16.60
2022-08-08T00:02:32.874Z,16.57
2022-08-08T00:05:09.785Z,16.53
2022-08-08T00:07:49.274Z,16.53
2022-08-08T00:10:28.542Z,16.46
2022-08-08T00:13:05.505Z,16.44
2022-08-08T00:15:56.511Z,16.30
2022-08-08T00:18:38.489Z,16.31
2022-08-08T00:21:08.776Z,16.25
2022-08-08T00:23:47.629Z,16.27
2022-08-08T00:26:26.076Z,16.21
2022-08-08T00:29:03.867Z,16.11
2022-08-08T00:32:20.362Z,16.08
2022-08-08T00:34:59.557Z,16.03
2022-08-08T00:37:47.624Z,16.00
2022-08-08T00:41:12.841Z,15.98
2022-08-08T00:43:55.976Z,15.89
2022-08-08T00:46:58.947Z,15.86
2022-08-08T00:49:58.583Z,15.84
2022-08-08T00:52:40.705Z,15.79
2022-08-08T00:56:04.050Z,15.77
2022-08-08T00:59:44.693Z,15.70
2022-08-08T01:03:54.048Z,15.64
2022-08-08T01:05:59.589Z,15.60
2022-08-08T01:08:56.078Z,15.53
2022-08-08T01:12:07.039Z,15.52
2022-08-08T01:15:37.341Z,15.50
2022-08-08T01:18:53.396Z,15.49
2022-08-08T01:22:09.860Z,15.43
2022-08-08T01:25:02.158Z,15.38
2022-08-08T01:28:00.200Z,15.34
2022-08-08T01:32:02.789Z,15.26
2022-08-08T01:34:49.615Z,15.25
2022-08-08T01:37:57.828Z,15.23
2022-08-08T01:40:47.154Z,15.16
2022-08-08T01:43:34.625Z,15.14
2022-08-08T01:46:27.423Z,15.14
2022-08-08T01:49:02.757Z,15.13
2022-08-08T01:52:53.975Z,15.08
2022-08-08T01:55:19.690Z,15.04
2022-08-08T01:58:11.921Z,14.96
2022-08-08T02:01:09.054Z,14.97
2022-08-08T02:04:06.466Z,14.91
2022-08-08T02:06:57.419Z,14.87
2022-08-08T02:10:02.555Z,14.83
2022-08-08T02:12:35.417Z,14.80
2022-08-08T02:15:11.446Z,14.75
2022-08-08T02:17:54.374Z,14.70
2022-08-08T02:21:00.946Z,14.70
2022-08-08T02:23:23.011Z,14.66
2022-08-08T02:26:08.091Z,14.64
2022-08-08T02:28:51.678Z,14.64
2022-08-08T02:31:57.937Z,14.59
2022-08-08T02:35:10.722Z,14.55
2022-08-08T02:37:52.544Z,14.55
2022-08-08T02:40:40.226Z,14.55
2022-08-08T02:44:36.799Z,14.50
2022-08-08T02:46:55.118Z,14.45
2022-08-08T02:50:00.190Z,14.41
2022-08-08T02:52:51.088Z,14.36
2022-08-08T02:55:58.008Z,14.36
2022-08-08T02:59:26.019Z,14.32
2022-08-08T03:02:30.256Z,14.25
2022-08-08T03:05:32.906Z,14.21
2022-08-08T03:08:43.260Z,14.17
2022-08-08T03:12:02.504Z,14.14
2022-08-08T03:15:58.357Z,14.08
2022-08-08T03:17:59.901Z,14.11
2022-08-08T03:20:51.342Z,14.05
2022-08-08T03:23:39.741Z,14.03
2022-08-08T03:26:25.557Z,14.03
2022-08-08T03:29:03.286Z,14.03
2022-08-08T03:32:06.111Z,13.98
2022-08-08T03:34:39.836Z,13.95
2022-08-08T03:38:00.009Z,13.90
2022-08-08T03:40:07.179Z,13.87
2022-08-08T03:42:56.899Z,13.86
2022-08-08T03:46:05.746Z,13.85
2022-08-08T03:49:08.881Z,13.83
2022-08-08T03:51:10.653Z,13.84
2022-08-08T03:53:47.574Z,13.83
2022-08-08T03:56:31.834Z,13.78
2022-08-08T03:59:03.563Z,13.77
2022-08-08T04:02:12.916Z,13.75
2022-08-08T04:04:30.622Z,13.74
2022-08-08T04:07:01.969Z,13.69
2022-08-08T04:10:02.870Z,13.67
2022-08-08T04:12:30.729Z,13.67
2022-08-08T04:15:02.211Z,13.65
2022-08-08T04:17:58.451Z,13.61
2022-08-08T04:20:28.313Z,13.62
2022-08-08T04:23:03.588Z,13.59
2022-08-08T04:25:38.365Z,13.54
2022-08-08T04:28:39.947Z,13.53
2022-08-08T04:31:04.766Z,13.53
2022-08-08T04:33:42.073Z,13.52
2022-08-08T04:36:12.914Z,13.52
2022-08-08T04:38:43.809Z,13.47
2022-08-08T04:41:17.833Z,13.42
2022-08-08T04:43:57.224Z,13.48
2022-08-08T04:46:27.665Z,13.43
2022-08-08T04:49:01.281Z,13.40
2022-08-08T04:51:55.195Z,13.44
2022-08-08T04:54:40.006Z,13.44
2022-08-08T04:57:11.509Z,13.41
2022-08-08T04:59:44.275Z,13.43
2022-08-08T05:02:14.834Z,13.43
2022-08-08T05:04:50.125Z,13.38
2022-08-08T05:07:19.914Z,13.41
2022-08-08T05:09:49.799Z,13.41
2022-08-08T05:12:20.651Z,13.42
2022-08-08T05:14:54.704Z,13.43
2022-08-08T05:17:24.474Z,13.40
2022-08-08T05:20:09.270Z,13.46
2022-08-08T05:22:44.125Z,13.47
2022-08-08T05:25:15.863Z,13.48
2022-08-08T05:27:45.579Z,13.51
2022-08-08T05:30:28.425Z,13.55
2022-08-08T05:32:59.770Z,13.54
2022-08-08T05:35:34.288Z,13.52
2022-08-08T05:38:31.813Z,13.57
2022-08-08T05:41:07.791Z,13.59
2022-08-08T05:44:04.225Z,13.61
2022-08-08T05:46:31.510Z,13.66
2022-08-08T05:49:11.033Z,13.67
2022-08-08T05:51:48.156Z,13.71
2022-08-08T05:54:28.737Z,13.75
2022-08-08T05:57:57.551Z,13.77
2022-08-08T06:00:25.256Z,13.84
2022-08-08T06:03:24.800Z,13.88
2022-08-08T06:06:01.152Z,13.94
2022-08-08T06:08:35.125Z,13.94
2022-08-08T06:11:09.656Z,13.97
2022-08-08T06:13:47.901Z,13.98
2022-08-08T06:16:27.405Z,14.05
2022-08-08T06:19:11.243Z,14.12
2022-08-08T06:21:48.719Z,14.13
2022-08-08T06:24:30.460Z,14.16
2022-08-08T06:27:06.810Z,14.24
2022-08-08T06:29:59.682Z,14.25
2022-08-08T06:32:34.321Z,14.23
2022-08-08T06:35:11.856Z,14.30
2022-08-08T06:38:09.279Z,14.37
2022-08-08T06:40:48.533Z,14.33
2022-08-08T06:43:28.425Z,14.42
2022-08-08T06:46:08.734Z,14.48
2022-08-08T06:48:40.042Z,14.59
2022-08-08T06:51:17.117Z,14.67
2022-08-08T06:53:51.216Z,14.80
2022-08-08T06:56:33.131Z,14.91
2022-08-08T06:59:09.850Z,14.99
2022-08-08T07:02:16.998Z,15.15
2022-08-08T07:04:45.479Z,15.24
2022-08-08T07:07:28.457Z,15.41
2022-08-08T07:10:07.931Z,15.51
2022-08-08T07:12:49.720Z,15.63
2022-08-08T07:16:03.778Z,15.71
2022-08-08T07:18:40.553Z,15.78
2022-08-08T07:21:18.524Z,15.79
2022-08-08T07:24:01.355Z,15.94
2022-08-08T07:26:37.919Z,16.06
2022-08-08T07:29:11.523Z,16.19
2022-08-08T07:31:43.645Z,16.31
2022-08-08T07:34:20.424Z,16.42
2022-08-08T07:36:58.176Z,16.55
2022-08-08T07:39:45.233Z,16.67
2022-08-08T07:42:21.153Z,16.81
2022-08-08T07:45:03.924Z,16.93
2022-08-08T07:47:38.466Z,17.08
2022-08-08T07:50:12.177Z,17.25
2022-08-08T07:52:47.508Z,17.43
2022-08-08T07:55:28.779Z,17.66
2022-08-08T07:58:08.383Z,17.88
2022-08-08T08:00:46.318Z,18.10
2022-08-08T08:03:30.997Z,18.29
2022-08-08T08:06:16.676Z,18.48
2022-08-08T08:08:53.095Z,18.61
2022-08-08T08:11:33.998Z,18.79
2022-08-08T08:14:29.008Z,18.98
2022-08-08T08:16:59.740Z,19.12
2022-08-08T08:19:45.399Z,19.26
2022-08-08T08:22:31.456Z,19.45
2022-08-08T08:25:07.392Z,19.62
2022-08-08T08:27:46.588Z,19.82
2022-08-08T08:30:17.911Z,20.00
2022-08-08T08:32:51.300Z,20.18
2022-08-08T08:35:29.859Z,20.38
2022-08-08T08:38:18.053Z,20.57
2022-08-08T08:40:56.773Z,20.72
2022-08-08T08:43:29.453Z,20.91
2022-08-08T08:46:03.567Z,21.06
2022-08-08T08:48:36.769Z,21.18
2022-08-08T08:51:19.096Z,21.36
2022-08-08T08:53:55.923Z,21.46
2022-08-08T08:56:31.953Z,21.68
2022-08-08T08:59:15.386Z,21.80
2022-08-08T09:01:54.395Z,21.94
2022-08-08T09:04:31.626Z,22.04
2022-08-08T09:07:13.672Z,22.23
2022-08-08T09:09:55.107Z,22.32
2022-08-08T09:12:30.609Z,22.45
2022-08-08T09:15:06.354Z,22.54
2022-08-08T09:17:55.793Z,22.64
2022-08-08T09:22:02.947Z,22.73
2022-08-08T09:23:25.399Z,22.83
2022-08-08T09:26:02.538Z,22.92
2022-08-08T09:28:41.228Z,23.07
2022-08-08T09:31:26.909Z,23.14
2022-08-08T09:34:30.736Z,23.26
2022-08-08T09:37:29.281Z,23.37
2022-08-08T09:40:10.705Z,23.46
2022-08-08T09:42:44.393Z,23.54
2022-08-08T09:45:55.512Z,23.64
2022-08-08T09:48:18.355Z,23.78
2022-08-08T09:50:51.050Z,23.88
2022-08-08T09:53:53.176Z,23.99
2022-08-08T09:56:21.831Z,24.06
2022-08-08T09:58:58.017Z,24.13
2022-08-08T10:01:59.339Z,24.17
2022-08-08T10:04:41.295Z,24.31
2022-08-08T10:07:15.540Z,24.41
2022-08-08T10:09:59.579Z,24.44
2022-08-08T10:12:53.827Z,24.47
2022-08-08T10:15:27.971Z,24.58
2022-08-08T10:18:06.432Z,24.67
2022-08-08T10:20:57.881Z,24.67
2022-08-08T10:23:47.183Z,24.73
2022-08-08T10:26:29.692Z,24.79
2022-08-08T10:29:05.769Z,24.85
2022-08-08T10:31:49.287Z,24.96
2022-08-08T10:34:22.966Z,24.96
2022-08-08T10:36:56.362Z,25.12
2022-08-08T10:39:43.286Z,25.09
2022-08-08T10:42:17.563Z,25.24
2022-08-08T10:44:49.473Z,25.30
2022-08-08T10:47:22.138Z,25.32
2022-08-08T10:50:01.968Z,25.41
2022-08-08T10:52:36.143Z,25.39
2022-08-08T10:55:09.897Z,25.38
2022-08-08T10:57:49.806Z,25.51
2022-08-08T11:00:25.455Z,25.54
2022-08-08T11:02:55.931Z,25.59
2022-08-08T11:05:27.591Z,25.69
2022-08-08T11:08:30.720Z,25.71
2022-08-08T11:11:08.219Z,25.87
2022-08-08T11:14:00.563Z,25.89
2022-08-08T11:16:34.597Z,25.85
2022-08-08T11:19:10.469Z,25.91
2022-08-08T11:21:55.728Z,25.96
2022-08-08T11:24:29.911Z,25.99
2022-08-08T11:27:19.794Z,26.05
2022-08-08T11:30:20.586Z,26.09
2022-08-08T11:32:47.294Z,26.14
2022-08-08T11:35:24.921Z,26.21
2022-08-08T11:38:38.560Z,26.27
2022-08-08T11:40:58.039Z,26.35
2022-08-08T11:43:39.305Z,26.36
2022-08-08T11:46:17.266Z,26.38
2022-08-08T11:48:48.351Z,26.40
2022-08-08T11:51:30.793Z,26.41
2022-08-08T11:54:31.567Z,26.52
2022-08-08T11:57:14.630Z,26.53
2022-08-08T12:00:00.709Z,26.58
2022-08-08T12:02:51.198Z,26.64
2022-08-08T12:05:22.867Z,26.69
2022-08-08T12:07:56.596Z,26.74
2022-08-08T12:10:27.787Z,26.80
2022-08-08T12:13:09.778Z,26.86
2022-08-08T12:15:49.033Z,26.91
2022-08-08T12:18:24.325Z,26.90
2022-08-08T12:20:58.611Z,26.96
2022-08-08T12:23:43.636Z,27.00
2022-08-08T12:26:27.721Z,26.98
2022-08-08T12:29:25.694Z,27.00
2022-08-08T12:32:13.198Z,27.08
2022-08-08T12:34:48.960Z,27.13
2022-08-08T12:37:25.846Z,27.11
2022-08-08T12:40:22.480Z,27.17
2022-08-08T12:42:55.658Z,27.24
2022-08-08T12:45:57.988Z,27.28
2022-08-08T12:48:36.707Z,27.31
2022-08-08T12:51:22.556Z,27.37
2022-08-08T12:54:00.559Z,27.41
2022-08-08T12:56:37.416Z,27.41
2022-08-08T12:59:18.140Z,27.41
2022-08-08T13:01:57.602Z,27.47
2022-08-08T13:04:28.706Z,27.49
2022-08-08T13:07:03.051Z,27.51
2022-08-08T13:09:57.543Z,27.51
2022-08-08T13:12:32.541Z,27.54
2022-08-08T13:15:04.975Z,27.60
2022-08-08T13:18:10.058Z,27.61
2022-08-08T13:20:27.928Z,27.63
2022-08-08T13:23:29.953Z,27.62
2022-08-08T13:25:58.767Z,27.70
2022-08-08T13:28:33.099Z,27.70
2022-08-08T13:31:04.485Z,27.71
2022-08-08T13:33:42.757Z,27.75
2022-08-08T13:36:13.858Z,27.80
2022-08-08T13:38:43.753Z,27.81
2022-08-08T13:41:16.136Z,27.80
2022-08-08T13:43:50.763Z,27.82
2022-08-08T13:46:26.595Z,27.80
2022-08-08T13:49:11.246Z,27.76
2022-08-08T13:51:48.510Z,27.70
2022-08-08T13:54:29.434Z,27.64
2022-08-08T13:57:12.341Z,27.63
2022-08-08T13:59:48.733Z,27.61
2022-08-08T14:02:21.362Z,27.56
2022-08-08T14:05:08.889Z,27.57
2022-08-08T14:07:52.610Z,27.52
2022-08-08T14:10:33.106Z,27.51
2022-08-08T14:13:31.189Z,27.46
2022-08-08T14:16:16.048Z,27.46
2022-08-08T14:18:56.289Z,27.50
2022-08-08T14:21:51.851Z,27.50
2022-08-08T14:24:33.284Z,27.55
2022-08-08T14:27:07.695Z,27.56
2022-08-08T14:29:39.433Z,27.59
2022-08-08T14:32:16.056Z,27.52
2022-08-08T14:34:53.807Z,27.48
2022-08-08T14:37:28.004Z,27.51
2022-08-08T14:40:13.778Z,27.56
2022-08-08T14:42:54.812Z,27.57
2022-08-08T14:45:33.422Z,27.57
2022-08-08T14:48:27.306Z,27.58
2022-08-08T14:51:07.837Z,27.54
2022-08-08T14:53:55.005Z,27.50
2022-08-08T14:56:26.544Z,27.50
2022-08-08T14:58:56.359Z,27.47
2022-08-08T15:01:37.576Z,27.42
2022-08-08T15:04:11.027Z,27.40
2022-08-08T15:06:42.598Z,27.36
2022-08-08T15:09:19.574Z,27.33
2022-08-08T15:11:53.419Z,27.33
2022-08-08T15:14:26.446Z,27.37
2022-08-08T15:16:57.117Z,27.38
2022-08-08T15:19:28.232Z,27.42
2022-08-08T15:21:58.484Z,27.42
2022-08-08T15:24:32.031Z,27.44
2022-08-08T15:27:12.089Z,27.40
2022-08-08T15:29:51.657Z,27.41
2022-08-08T15:32:27.341Z,27.40
2022-08-08T15:35:00.438Z,27.40
2022-08-08T15:37:34.032Z,27.41
2022-08-08T15:40:11.355Z,27.38
2022-08-08T15:42:49.741Z,27.36
2022-08-08T15:45:23.101Z,27.38
2022-08-08T15:48:15.987Z,27.38
2022-08-08T15:50:58.772Z,27.32
2022-08-08T15:53:33.105Z,27.32
2022-08-08T15:56:13.317Z,27.24
2022-08-08T15:58:45.900Z,27.18
2022-08-08T16:01:18.297Z,27.10
2022-08-08T16:03:51.547Z,27.03
2022-08-08T16:06:28.958Z,27.03
2022-08-08T16:13:00.748Z,27.02
2022-08-08T16:13:02.012Z,27.05
2022-08-08T16:14:52.635Z,27.01
2022-08-08T16:17:57.792Z,26.96
2022-08-08T16:20:13.881Z,26.92
2022-08-08T16:22:44.081Z,26.93
2022-08-08T16:25:20.356Z,26.91
2022-08-08T16:27:57.912Z,26.92
2022-08-08T16:30:36.086Z,26.90
2022-08-08T16:33:06.687Z,26.83
2022-08-08T16:35:39.243Z,26.81
2022-08-08T16:38:16.172Z,26.78
2022-08-08T16:40:46.608Z,26.70
2022-08-08T16:43:22.158Z,26.69
2022-08-08T16:46:43.974Z,26.62
2022-08-08T16:48:43.572Z,26.62
2022-08-08T16:55:01.172Z,26.61
2022-08-08T16:55:04.911Z,26.61
2022-08-08T16:57:04.105Z,26.58
2022-08-08T16:59:52.038Z,26.57
2022-08-08T17:02:38.221Z,26.57
2022-08-08T17:05:10.050Z,26.56
2022-08-08T17:07:44.205Z,26.54
2022-08-08T17:10:19.102Z,26.51
2022-08-08T17:12:52.944Z,26.49
2022-08-08T17:15:25.581Z,26.45
2022-08-08T17:18:04.702Z,26.38
2022-08-08T17:20:40.601Z,26.34
2022-08-08T17:23:18.058Z,26.33
2022-08-08T17:26:05.877Z,26.28
2022-08-08T17:28:35.755Z,26.32
2022-08-08T17:31:15.077Z,26.32
2022-08-08T17:34:48.550Z,26.26
2022-08-08T17:37:03.059Z,26.22
2022-08-08T17:40:02.948Z,26.18
2022-08-08T17:42:23.565Z,26.18
2022-08-08T17:44:53.464Z,26.29
2022-08-08T17:47:27.998Z,26.33
2022-08-08T17:50:01.505Z,26.32
2022-08-08T17:52:33.375Z,26.21
2022-08-08T17:55:05.339Z,26.20
2022-08-08T17:57:39.563Z,26.16
2022-08-08T18:00:19.572Z,26.11
2022-08-08T18:03:08.045Z,26.03
2022-08-08T18:05:48.999Z,25.95
2022-08-08T18:08:25.270Z,25.91
2022-08-08T18:11:14.611Z,25.87
2022-08-08T18:13:47.090Z,25.86
2022-08-08T18:16:23.352Z,25.79
2022-08-08T18:18:57.571Z,25.73
2022-08-08T18:21:59.805Z,25.67
2022-08-08T18:24:21.738Z,25.55
2022-08-08T18:26:55.842Z,25.48
2022-08-08T18:29:33.698Z,25.40
2022-08-08T18:32:06.789Z,25.38
2022-08-08T18:34:42.739Z,25.30
2022-08-08T18:37:17.838Z,25.24
2022-08-08T18:40:02.246Z,25.19
2022-08-08T18:42:31.915Z,25.20
2022-08-08T18:45:09.274Z,25.10
2022-08-08T18:47:51.220Z,24.98
2022-08-08T18:50:24.398Z,24.95
2022-08-08T18:52:54.564Z,24.90
2022-08-08T18:55:28.042Z,24.83
2022-08-08T18:57:57.876Z,24.76
2022-08-08T19:00:29.057Z,24.67
2022-08-08T19:03:06.200Z,24.59
2022-08-08T19:05:45.145Z,24.45
2022-08-08T19:08:28.198Z,24.36
2022-08-08T19:11:01.559Z,24.26
2022-08-08T19:13:53.588Z,24.18
2022-08-08T19:16:23.721Z,24.10
2022-08-08T19:19:02.325Z,23.98
2022-08-08T19:21:49.455Z,23.95
2022-08-08T19:24:39.396Z,23.86
2022-08-08T19:27:11.025Z,23.80
2022-08-08T19:29:46.014Z,23.75
2022-08-08T19:32:21.762Z,23.67
2022-08-08T19:34:52.850Z,23.59
2022-08-08T19:37:43.168Z,23.52
2022-08-08T19:40:16.415Z,23.44
2022-08-08T19:42:47.202Z,23.38
2022-08-08T19:45:57.324Z,23.31
2022-08-08T19:48:28.160Z,23.23
2022-08-08T19:50:57.421Z,23.07
2022-08-08T19:53:51.069Z,23.05
2022-08-08T19:56:25.787Z,22.97
2022-08-08T19:59:12.327Z,22.91
2022-08-08T20:02:01.109Z,22.85
2022-08-08T20:04:32.310Z,22.77
2022-08-08T20:07:05.348Z,22.71
2022-08-08T20:09:57.169Z,22.56
2022-08-08T20:12:31.999Z,22.51
2022-08-08T20:15:14.189Z,22.45
2022-08-08T20:17:48.144Z,22.41
2022-08-08T20:20:22.241Z,22.35
2022-08-08T20:22:55.908Z,22.26
2022-08-08T20:25:31.337Z,22.13
2022-08-08T20:28:06.797Z,22.08
2022-08-08T20:30:53.197Z,22.03
2022-08-08T20:35:59.011Z,21.98
2022-08-08T20:38:37.496Z,21.95
2022-08-08T20:41:17.503Z,21.87
2022-08-08T20:43:50.303Z,21.86
2022-08-08T20:46:25.470Z,21.81
2022-08-08T20:48:58.578Z,21.75
2022-08-08T20:51:32.535Z,21.71
2022-08-08T20:54:13.965Z,21.66
2022-08-08T20:57:17.153Z,21.63
2022-08-08T20:59:41.720Z,21.57
2022-08-08T21:02:12.510Z,21.49
2022-08-08T21:04:43.585Z,21.45
2022-08-08T21:07:17.990Z,21.37
2022-08-08T21:10:12.807Z,21.33
2022-08-08T21:12:46.266Z,21.28
2022-08-08T21:16:04.212Z,21.19
2022-08-08T21:18:08.485Z,21.11
2022-08-08T21:20:38.183Z,21.08
2022-08-08T21:23:09.142Z,21.01
2022-08-08T21:25:39.320Z,21.00
2022-08-08T21:28:15.611Z,20.94
2022-08-08T21:30:52.005Z,20.92
2022-08-08T21:33:21.958Z,20.85
2022-08-08T21:36:17.477Z,20.80
2022-08-08T21:38:41.587Z,20.71
2022-08-08T21:41:29.047Z,20.67
2022-08-08T21:44:03.717Z,20.63
2022-08-08T21:48:08.148Z,20.60
2022-08-08T21:49:23.508Z,20.52
2022-08-08T21:54:32.649Z,20.48
2022-08-08T21:54:58.186Z,20.47
2022-08-08T21:57:42.228Z,20.39
2022-08-08T22:00:16.791Z,20.35
2022-08-08T22:02:56.093Z,20.30
2022-08-08T22:05:26.132Z,20.24
2022-08-08T22:08:00.311Z,20.19
2022-08-08T22:10:32.208Z,20.10
2022-08-08T22:13:18.040Z,20.03
2022-08-08T22:15:59.066Z,20.01
2022-08-08T22:18:31.188Z,19.96
2022-08-08T22:21:14.583Z,19.96
2022-08-08T22:23:50.810Z,19.90
2022-08-08T22:26:27.928Z,19.86
2022-08-08T22:29:14.926Z,19.76
2022-08-08T22:32:01.441Z,19.76
2022-08-08T22:34:39.646Z,19.75
2022-08-08T22:37:28.126Z,19.74
2022-08-08T22:40:01.160Z,19.71
2022-08-08T22:42:34.582Z,19.71
2022-08-08T22:45:05.355Z,19.67
2022-08-08T22:47:47.125Z,19.61
2022-08-08T22:50:27.189Z,19.53
2022-08-08T22:54:27.722Z,19.51
2022-08-08T22:55:58.453Z,19.49
2022-08-08T22:58:31.204Z,19.44
2022-08-08T23:02:01.677Z,19.41
2022-08-08T23:03:57.011Z,19.38
2022-08-08T23:06:27.318Z,19.30
2022-08-08T23:08:59.040Z,19.24
2022-08-08T23:12:27.756Z,19.26
2022-08-08T23:14:21.505Z,19.20
2022-08-08T23:16:59.196Z,19.16
2022-08-08T23:19:32.911Z,19.16
2022-08-08T23:22:04.993Z,19.10
2022-08-08T23:24:36.400Z,19.09
2022-08-08T23:27:07.380Z,19.07
2022-08-08T23:29:37.479Z,19.07
2022-08-08T23:32:10.421Z,19.04
2022-08-08T23:34:49.549Z,19.02
2022-08-08T23:38:01.702Z,18.98
2022-08-08T23:40:22.090Z,18.96
2022-08-08T23:42:52.648Z,18.92
2022-08-08T23:49:03.212Z,18.86
2022-08-08T23:49:04.912Z,18.90
2022-08-08T23:51:04.730Z,18.84
2022-08-08T23:53:56.105Z,18.78
2022-08-08T23:56:34.074Z,18.77
2022-08-08T23:59:04.027Z,18.71
